Time;durP1;ratioP1;P1;durP2;ratioP2;P2;SDS_P1;SDS_P2;PMS_P1;PMS_P2;Temp;Humidity;BMP_temperature;BMP_pressure;BME280_temperature;BME280_humidity;BME280_pressure;Samples;Min_cycle;Max_cycle;Signal;HPM_P1;HPM_P2
2022/06/04 00:00:30;;;;;;;4.30;2.15;;;;;;;12.72;61.51;101321.53;5057922;28;20036;-47
2022/06/04 00:02:56;;;;;;;6.03;2.08;;;;;;;12.77;60.69;101308.34;5076453;28;20437;-50
2022/06/04 00:05:26;;;;;;;5.40;1.90;;;;;;;12.75;60.60;101308.53;5076728;28;20090;-50
2022/06/04 00:07:53;;;;;;;9.32;2.65;;;;;;;12.76;61.87;101321.00;5077368;28;20059;-51
2022/06/04 00:15:55;;;;;;;5.53;2.38;;;;;;;12.57;62.68;101325.09;5065331;28;20032;-48
2022/06/04 00:18:22;;;;;;;4.95;2.35;;;;;;;12.51;63.33;101325.81;5079857;28;20143;-47
2022/06/04 00:20:49;;;;;;;7.65;2.88;;;;;;;12.51;63.33;101333.06;5078083;28;20035;-47
2022/06/04 00:23:16;;;;;;;8.20;3.20;;;;;;;12.50;64.45;101344.88;5078603;28;20492;-47
2022/06/04 00:25:45;;;;;;;7.93;2.80;;;;;;;12.35;64.46;101315.22;5076752;28;20044;-47
2022/06/04 00:28:11;;;;;;;7.00;3.10;;;;;;;12.34;65.59;101335.94;5076429;28;20469;-47
2022/06/04 00:30:38;;;;;;;6.07;2.70;;;;;;;12.20;64.82;101324.13;5076219;28;20036;-48
2022/06/04 00:33:05;;;;;;;12.30;3.45;;;;;;;12.31;65.50;101347.09;5058053;28;20418;-49
2022/06/04 00:35:31;;;;;;;6.07;3.15;;;;;;;12.27;65.73;101355.72;5077173;28;20060;-47
2022/06/04 00:37:57;;;;;;;5.75;3.10;;;;;;;12.38;65.50;101348.00;5076427;28;20404;-49
2022/06/04 00:40:39;;;;;;;10.25;2.97;;;;;;;12.36;65.75;101352.75;5076218;28;20040;-47
2022/06/04 00:43:05;;;;;;;8.93;3.03;;;;;;;12.39;65.36;101363.16;5075530;28;20471;-48
2022/06/04 00:46:10;;;;;;;9.43;3.70;;;;;;;12.33;66.96;101363.06;5075755;28;20032;-47
2022/06/04 00:48:36;;;;;;;17.42;3.40;;;;;;;12.17;67.79;101347.91;5049772;28;20056;-48
2022/06/04 00:51:04;;;;;;;7.35;3.38;;;;;;;12.11;67.58;101349.47;5075528;28;20489;-49
2022/06/04 00:53:31;;;;;;;9.30;4.20;;;;;;;12.12;67.94;101363.75;5058031;28;20055;-47
2022/06/04 00:56:14;;;;;;;9.52;3.60;;;;;;;11.99;68.79;101334.75;5075643;28;20035;-49
2022/06/04 00:58:57;;;;;;;8.10;3.75;;;;;;;12.05;68.64;101344.78;5056965;28;20116;-49
2022/06/04 01:01:27;;;;;;;6.50;3.50;;;;;;;12.01;67.60;101344.31;5059005;28;20067;-47
2022/06/04 01:04:12;;;;;;;10.25;3.83;;;;;;;12.03;69.41;101354.06;5074813;28;20028;-48
2022/06/04 01:06:55;;;;;;;7.75;3.90;;;;;;;12.00;69.04;101356.13;5074747;28;20032;-48
2022/06/04 01:09:38;;;;;;;8.80;4.40;;;;;;;11.95;69.72;101361.19;5057651;28;20064;-47
2022/06/04 01:12:23;;;;;;;7.63;3.42;;;;;;;12.04;69.26;101361.16;5058547;28;20150;-48
2022/06/04 01:15:26;;;;;;;13.40;4.47;;;;;;;11.95;70.26;101366.56;5056981;28;20025;-47
2022/06/04 01:18:20;;;;;;;12.95;4.25;;;;;;;11.86;70.49;101364.09;5061993;28;20348;-47
2022/06/04 01:21:04;;;;;;;12.02;4.97;;;;;;;11.77;71.40;101364.16;5025687;28;20431;-49
2022/06/04 01:24:02;;;;;;;10.25;4.53;;;;;;;11.78;71.66;101363.16;5073580;28;20094;-48
2022/06/04 01:26:55;;;;;;;16.27;5.05;;;;;;;11.70;71.75;101360.53;5062207;28;20036;-47
2022/06/04 01:29:27;;;;;;;9.75;4.18;;;;;;;11.67;72.34;101355.50;5076662;28;20032;-56
2022/06/04 01:32:01;;;;;;;10.82;4.43;;;;;;;11.59;72.82;101360.94;5078758;28;20089;-47
2022/06/04 01:34:52;;;;;;;14.23;4.30;;;;;;;11.56;73.05;101354.03;5078859;28;20028;-48
2022/06/04 01:37:26;;;;;;;12.45;4.57;;;;;;;11.56;72.86;101353.22;5075669;28;20442;-47
2022/06/04 01:42:43;;;;;;;13.30;4.90;;;;;;;11.52;73.64;101360.81;5044796;28;20437;-48
2022/06/04 01:45:15;;;;;;;11.18;5.07;;;;;;;11.45;73.07;101346.38;5055888;28;20047;-47
2022/06/04 01:47:43;;;;;;;14.77;5.15;;;;;;;11.54;72.92;101353.38;5073923;28;20032;-47
2022/06/04 01:50:15;;;;;;;11.82;4.65;;;;;;;11.50;73.45;101354.75;5055252;28;20078;-47
2022/06/04 01:52:42;;;;;;;10.57;4.32;;;;;;;11.56;73.19;101354.03;5054790;28;20029;-47
2022/06/04 01:55:20;;;;;;;7.07;4.35;;;;;;;11.52;73.85;101371.56;5073241;28;20055;-47
2022/06/04 01:57:56;;;;;;;7.60;4.45;;;;;;;11.56;74.13;101369.34;5073182;28;20028;-48
2022/06/04 02:00:28;;;;;;;9.52;4.35;;;;;;;11.61;73.20;101361.59;5073089;28;20028;-47
2022/06/04 02:03:00;;;;;;;11.93;5.18;;;;;;;11.76;72.52;101375.94;5073399;28;20028;-48
2022/06/04 02:05:37;;;;;;;10.23;5.30;;;;;;;11.71;73.40;101372.94;5073033;28;20076;-49
2022/06/04 02:08:06;;;;;;;12.02;5.18;;;;;;;11.68;73.06;101367.94;5056442;28;20032;-48
2022/06/04 02:10:37;;;;;;;13.38;5.03;;;;;;;11.81;72.63;101383.47;5038794;28;20032;-49
2022/06/04 02:13:08;;;;;;;11.13;4.78;;;;;;;11.75;72.95;101376.94;5055797;28;20036;-50
2022/06/04 02:15:49;;;;;;;13.50;5.10;;;;;;;11.78;73.16;101381.97;5055358;28;20074;-49
2022/06/04 02:18:16;;;;;;;14.48;4.95;;;;;;;11.84;73.14;101385.81;5072763;28;20420;-47
2022/06/04 02:20:41;;;;;;;14.15;5.70;;;;;;;11.73;73.72;101378.16;5072836;28;20020;-48
2022/06/04 02:23:07;;;;;;;15.43;5.50;;;;;;;11.78;73.87;101386.53;5072699;28;20031;-49
2022/06/04 02:25:34;;;;;;;9.93;5.13;;;;;;;11.73;74.05;101378.97;5072108;28;20141;-46
2022/06/04 02:28:00;;;;;;;16.35;5.85;;;;;;;11.76;73.08;101386.72;5072527;28;20481;-50
2022/06/04 02:30:36;;;;;;;8.60;4.60;;;;;;;11.61;74.50;101385.81;5054617;28;20031;-48
2022/06/04 02:33:13;;;;;;;16.15;5.35;;;;;;;11.68;74.03;101388.63;5055396;28;20028;-48
2022/06/04 02:35:52;;;;;;;14.90;5.65;;;;;;;11.68;73.71;101384.09;5072955;28;20039;-47
2022/06/04 02:38:29;;;;;;;15.63;5.50;;;;;;;11.68;73.71;101386.78;5059187;28;20032;-46
2022/06/04 02:41:03;;;;;;;8.60;5.60;;;;;;;11.60;74.48;101384.13;5076980;28;20401;-48
2022/06/04 02:43:43;;;;;;;12.65;6.07;;;;;;;11.56;74.61;101380.13;5075138;28;20029;-49
2022/06/04 02:46:33;;;;;;;14.38;6.22;;;;;;;11.63;75.10;101386.47;5073750;28;20036;-49
2022/06/04 02:49:06;;;;;;;7.85;4.50;;;;;;;11.74;73.88;101379.84;5041855;28;20033;-48
2022/06/04 02:51:37;;;;;;;11.77;5.57;;;;;;;11.70;73.56;101375.81;5072750;28;20021;-47
2022/06/04 02:54:08;;;;;;;14.93;5.25;;;;;;;11.66;74.23;101378.03;5054158;28;20029;-48
2022/06/04 02:56:38;;;;;;;10.80;6.15;;;;;;;11.57;74.17;101371.88;5072179;28;20389;-49
2022/06/04 02:59:08;;;;;;;14.07;5.63;;;;;;;11.54;74.35;101379.47;5072305;28;20431;-47
2022/06/04 03:01:41;;;;;;;12.30;5.38;;;;;;;11.58;74.58;101370.00;5054329;28;20034;-47
2022/06/04 03:04:08;;;;;;;14.65;6.30;;;;;;;11.51;74.42;101380.63;5053719;28;20435;-48
2022/06/04 03:06:35;;;;;;;9.95;4.53;;;;;;;11.58;73.71;101381.59;5071741;28;20024;-49
2022/06/04 03:09:04;;;;;;;9.48;4.95;;;;;;;11.58;74.23;101370.84;5053642;28;20439;-48
2022/06/04 03:11:35;;;;;;;10.45;4.43;;;;;;;11.71;73.33;101380.19;5053503;28;20074;-49
2022/06/04 03:14:01;;;;;;;11.50;5.03;;;;;;;11.51;73.69;101350.22;5053255;28;20404;-48
2022/06/04 03:16:36;;;;;;;9.60;5.72;;;;;;;11.51;74.07;101375.25;5053315;28;20028;-47
2022/06/04 03:19:04;;;;;;;12.65;5.60;;;;;;;11.47;73.97;101381.19;5071467;28;20074;-47
2022/06/04 03:21:30;;;;;;;16.38;5.80;;;;;;;11.33;75.18;101374.69;5071411;28;20031;-48
2022/06/04 03:23:56;;;;;;;15.60;6.35;;;;;;;11.39;74.52;101393.66;5073735;28;20397;-48
2022/06/04 03:26:21;;;;;;;17.05;6.18;;;;;;;11.32;74.78;101390.00;5057046;28;20033;-49
2022/06/04 03:28:47;;;;;;;15.45;5.65;;;;;;;11.27;75.11;101394.22;5056795;28;20041;-49
2022/06/04 03:31:13;;;;;;;12.00;5.25;;;;;;;11.34;74.89;101387.13;5074867;28;20032;-49
2022/06/04 03:33:39;;;;;;;13.35;5.45;;;;;;;11.23;74.13;101356.09;5074693;28;20067;-50
2022/06/04 03:36:08;;;;;;;13.77;6.40;;;;;;;11.39;74.34;101379.38;5075256;28;20029;-50
2022/06/04 03:38:34;;;;;;;18.40;6.43;;;;;;;11.23;75.01;101383.81;5074621;28;20040;-49
2022/06/04 03:40:59;;;;;;;12.20;6.82;;;;;;;11.28;75.14;101379.78;5056862;28;20040;-49
2022/06/04 03:43:25;;;;;;;9.85;5.53;;;;;;;11.21;75.37;101382.31;5075089;28;20064;-48
2022/06/04 03:45:51;;;;;;;10.68;5.95;;;;;;;11.17;74.91;101381.00;5058323;28;20059;-49
2022/06/04 03:48:18;;;;;;;15.75;6.20;;;;;;;11.24;75.35;101388.19;5075075;28;20047;-48
2022/06/04 03:50:43;;;;;;;10.45;5.47;;;;;;;11.22;74.71;101370.56;5056557;28;20527;-48
2022/06/04 03:53:09;;;;;;;7.43;4.97;;;;;;;11.28;75.06;101385.97;5057383;28;20133;-48
2022/06/04 03:55:35;;;;;;;17.90;5.60;;;;;;;11.35;74.65;101375.38;5075180;28;20381;-48
2022/06/04 03:58:01;;;;;;;11.82;5.72;;;;;;;11.34;74.43;101379.88;5075253;28;20056;-47
2022/06/04 04:00:34;;;;;;;11.57;6.00;;;;;;;11.35;73.91;101381.59;5075043;28;20040;-48
2022/06/04 04:03:04;;;;;;;10.45;6.00;;;;;;;11.21;75.08;101380.47;5075402;28;20074;-47
2022/06/04 04:05:34;;;;;;;13.05;5.32;;;;;;;11.33;74.21;101388.13;5057621;28;20079;-48
2022/06/04 04:08:01;;;;;;;13.20;5.70;;;;;;;11.35;73.81;101373.50;5074846;28;20127;-48
2022/06/04 04:10:30;;;;;;;15.73;5.90;;;;;;;11.38;74.02;101375.81;5075065;28;20047;-49
2022/06/04 04:12:56;;;;;;;13.48;5.30;;;;;;;11.42;73.60;101395.16;5056469;28;20063;-48
2022/06/04 04:15:22;;;;;;;15.35;5.72;;;;;;;11.32;74.64;101403.44;5041406;28;20418;-48
2022/06/04 04:17:49;;;;;;;10.20;4.75;;;;;;;11.33;74.04;101397.06;5057519;28;20090;-51
2022/06/04 04:20:20;;;;;;;12.05;6.18;;;;;;;11.19;74.31;101384.34;5061575;28;20103;-50
2022/06/04 04:22:47;;;;;;;20.65;5.20;;;;;;;11.30;73.92;101401.94;5083294;28;20029;-51
2022/06/04 04:25:17;;;;;;;14.60;5.78;;;;;;;11.18;73.72;101393.41;5080141;28;20178;-51
2022/06/04 04:27:43;;;;;;;14.90;5.53;;;;;;;11.11;74.06;101387.91;5060180;28;20044;-48
2022/06/04 04:30:12;;;;;;;10.00;4.68;;;;;;;11.19;74.39;101393.25;5059478;28;20119;-48
2022/06/04 04:32:38;;;;;;;16.67;5.30;;;;;;;11.24;74.21;101387.34;5076901;28;20024;-48
2022/06/04 04:35:07;;;;;;;14.70;5.32;;;;;;;11.23;73.66;101374.91;5076687;28;20055;-48
2022/06/04 04:37:33;;;;;;;14.38;5.38;;;;;;;11.27;73.70;101380.78;5041009;28;20032;-48
2022/06/04 04:39:59;;;;;;;19.35;6.45;;;;;;;11.08;74.15;101363.22;5076474;28;20032;-52
2022/06/04 04:42:24;;;;;;;13.45;5.70;;;;;;;11.11;74.22;101382.53;5058975;28;20381;-50
2022/06/04 04:44:50;;;;;;;10.55;4.68;;;;;;;11.13;74.62;101382.38;5077119;28;20111;-48
2022/06/04 04:47:16;;;;;;;10.70;5.28;;;;;;;11.24;74.01;101379.28;5076422;28;20029;-50
2022/06/04 04:49:42;;;;;;;9.82;4.50;;;;;;;11.32;73.81;101378.41;5076890;28;20114;-49
2022/06/04 04:52:08;;;;;;;14.25;4.97;;;;;;;11.51;73.32;101388.69;5077631;28;20032;-50
2022/06/04 04:54:34;;;;;;;14.57;5.32;;;;;;;11.35;72.90;101373.50;5077818;28;20070;-49
2022/06/04 04:57:00;;;;;;;16.10;5.25;;;;;;;11.45;72.58;101373.28;5075637;28;20033;-51
2022/06/04 04:59:27;;;;;;;10.38;5.00;;;;;;;11.51;72.34;101394.09;5075919;28;20039;-53
2022/06/04 05:01:52;;;;;;;12.30;5.65;;;;;;;11.45;73.17;101388.59;5075584;28;20427;-52
2022/06/04 05:04:19;;;;;;;14.40;5.03;;;;;;;11.49;73.31;101392.59;5074851;28;20027;-49
2022/06/04 05:06:45;;;;;;;13.63;5.45;;;;;;;11.20;73.67;101376.09;5075037;28;20036;-50
2022/06/04 05:09:11;;;;;;;11.27;5.38;;;;;;;11.38;73.83;101404.59;5074746;28;20032;-49
2022/06/04 05:11:37;;;;;;;13.35;4.90;;;;;;;11.39;73.62;101390.97;5073202;28;20033;-48
2022/06/04 05:14:03;;;;;;;9.88;4.85;;;;;;;11.30;73.23;101365.13;5073038;28;20082;-49
2022/06/04 05:16:33;;;;;;;12.50;4.72;;;;;;;11.58;73.10;101399.59;5072764;28;20028;-48
2022/06/04 05:19:01;;;;;;;12.65;5.70;;;;;;;11.47;73.27;101410.78;5072779;28;20051;-49
2022/06/04 05:21:46;;;;;;;16.48;5.30;;;;;;;11.31;73.60;101401.78;5038498;28;20169;-49
2022/06/04 05:24:27;;;;;;;10.70;5.05;;;;;;;11.21;73.98;101391.22;5046688;28;20036;-47
2022/06/04 05:26:54;;;;;;;12.85;5.40;;;;;;;11.39;73.90;101395.53;5092744;28;20035;-48
2022/06/04 05:29:20;;;;;;;12.65;5.32;;;;;;;11.55;73.22;101383.81;5058033;28;20388;-48
2022/06/04 05:31:47;;;;;;;15.10;5.22;;;;;;;11.73;72.14;101397.00;5094782;28;20028;-50
2022/06/04 05:34:15;;;;;;;10.45;5.00;;;;;;;11.85;71.68;101384.81;5101867;28;20349;-48
2022/06/04 05:36:42;;;;;;;14.30;5.40;;;;;;;11.83;71.42;101376.09;5078062;28;20545;-50
2022/06/04 05:39:09;;;;;;;13.68;4.22;;;;;;;12.07;71.10;101396.63;5074608;28;20028;-48
2022/06/04 05:41:36;;;;;;;12.73;4.72;;;;;;;12.08;71.52;101398.28;5075880;28;20100;-48
2022/06/04 05:44:03;;;;;;;11.95;4.22;;;;;;;12.03;70.78;101373.75;5093718;28;20468;-48
2022/06/04 05:46:29;;;;;;;15.30;4.65;;;;;;;12.21;70.91;101397.69;5092984;28;20130;-47
2022/06/04 05:48:55;;;;;;;8.40;4.53;;;;;;;12.36;69.88;101395.84;5093497;28;20065;-47
2022/06/04 05:51:24;;;;;;;10.40;4.30;;;;;;;12.35;70.37;101396.03;5093465;28;20039;-49
2022/06/04 05:53:52;;;;;;;12.02;4.63;;;;;;;12.40;70.46;101407.09;5093268;28;20036;-50
2022/06/04 05:56:25;;;;;;;7.43;4.30;;;;;;;12.38;69.98;101398.38;5058291;28;20036;-49
2022/06/04 05:58:54;;;;;;;9.60;3.85;;;;;;;12.61;69.51;101416.34;5074268;28;20024;-47
2022/06/04 06:01:21;;;;;;;11.40;4.50;;;;;;;12.39;69.49;101410.81;5074408;28;20032;-48
2022/06/04 06:03:48;;;;;;;9.50;4.28;;;;;;;12.37;69.79;101432.56;5092578;28;20487;-48
2022/06/04 06:06:17;;;;;;;11.75;4.47;;;;;;;12.29;69.71;101426.38;5074159;28;20040;-49
2022/06/04 06:08:43;;;;;;;10.88;4.88;;;;;;;12.32;70.06;101421.47;5057931;28;20031;-50
2022/06/04 06:11:11;;;;;;;12.77;4.85;;;;;;;12.32;69.63;101418.78;5092524;28;20028;-48
2022/06/04 06:13:38;;;;;;;11.15;3.85;;;;;;;12.34;70.05;101397.06;5092307;28;20032;-49
2022/06/04 06:16:10;;;;;;;10.70;3.85;;;;;;;12.52;69.35;101421.81;5092258;28;20476;-48
2022/06/04 06:18:36;;;;;;;7.15;3.88;;;;;;;12.48;69.94;101420.50;5058590;28;20036;-49
2022/06/04 06:21:07;;;;;;;10.02;4.32;;;;;;;12.26;69.68;101411.44;5093360;28;20028;-50
2022/06/04 06:23:34;;;;;;;11.05;4.53;;;;;;;12.45;69.97;101428.13;5072497;28;20052;-51
2022/06/04 06:26:06;;;;;;;11.80;4.75;;;;;;;12.48;69.55;101435.81;5073361;28;20115;-50
2022/06/04 06:28:35;;;;;;;13.88;4.68;;;;;;;12.59;68.58;101409.28;5055553;28;20040;-47
2022/06/04 06:31:01;;;;;;;11.45;4.07;;;;;;;12.67;68.88;101429.09;5055948;28;20033;-47
2022/06/04 06:33:27;;;;;;;8.27;4.00;;;;;;;12.69;68.31;101427.88;5073035;28;20082;-47
2022/06/04 06:35:57;;;;;;;16.23;4.22;;;;;;;12.76;68.06;101426.13;5073070;28;20036;-48
2022/06/04 06:38:27;;;;;;;16.42;4.38;;;;;;;12.77;67.80;101429.66;5073101;28;20025;-48
2022/06/04 06:40:54;;;;;;;11.75;3.63;;;;;;;12.95;67.71;101438.22;5038620;28;20028;-47
2022/06/04 06:43:20;;;;;;;10.18;3.72;;;;;;;13.00;67.51;101426.03;5073174;28;20057;-47
2022/06/04 06:45:46;;;;;;;8.32;3.60;;;;;;;13.22;66.84;101435.03;5073135;28;20056;-48
2022/06/04 06:48:12;;;;;;;13.80;3.97;;;;;;;13.41;66.36;101418.31;5073028;28;20032;-48
2022/06/04 06:50:38;;;;;;;10.32;4.00;;;;;;;13.47;65.56;101431.06;5073436;28;20036;-48
2022/06/04 06:53:04;;;;;;;7.80;3.60;;;;;;;13.65;65.35;101430.66;5073342;28;20033;-47
2022/06/04 06:55:31;;;;;;;8.00;3.47;;;;;;;13.76;63.99;101434.69;5055741;28;20028;-48
2022/06/04 06:57:56;;;;;;;11.60;3.60;;;;;;;13.88;63.52;101433.16;5074455;28;20066;-48
2022/06/04 07:00:22;;;;;;;11.82;3.05;;;;;;;13.82;63.81;101433.94;5077392;28;20058;-48
2022/06/04 07:02:48;;;;;;;11.00;3.30;;;;;;;14.00;63.55;101451.56;5059191;28;20040;-48
2022/06/04 07:05:14;;;;;;;6.45;3.10;;;;;;;13.89;63.61;101447.50;5059314;28;20027;-48
2022/06/04 07:07:40;;;;;;;9.27;3.70;;;;;;;13.84;63.32;101439.16;5076950;28;20029;-47
2022/06/04 07:10:07;;;;;;;9.93;3.40;;;;;;;13.97;63.76;101438.44;5076770;28;20032;-49
2022/06/04 07:12:33;;;;;;;12.93;3.65;;;;;;;13.98;62.38;101438.25;5059029;28;20025;-48
2022/06/04 07:14:59;;;;;;;8.52;3.08;;;;;;;13.87;62.74;101454.97;5059100;28;20025;-49
2022/06/04 07:17:25;;;;;;;7.75;3.08;;;;;;;13.83;63.11;101426.69;5076340;28;20362;-47
2022/06/04 07:19:51;;;;;;;8.68;3.53;;;;;;;14.00;62.72;101443.47;5076597;28;20026;-48
2022/06/04 07:22:17;;;;;;;11.43;3.33;;;;;;;14.08;62.68;101462.25;5078740;28;20029;-48
2022/06/04 07:24:43;;;;;;;9.27;3.65;;;;;;;14.07;61.62;101439.81;5083691;28;20497;-47
2022/06/04 07:27:09;;;;;;;11.05;3.28;;;;;;;14.30;61.72;101444.16;5082972;28;20036;-47
2022/06/04 07:29:35;;;;;;;8.48;2.97;;;;;;;14.60;61.52;101455.69;5081424;28;20028;-47
2022/06/04 07:32:04;;;;;;;9.27;2.53;;;;;;;14.77;60.74;101471.63;5061429;28;20035;-47
2022/06/04 07:34:30;;;;;;;7.93;2.78;;;;;;;14.68;60.55;101473.63;5076990;28;20029;-47
2022/06/04 07:36:56;;;;;;;8.48;3.00;;;;;;;14.45;61.50;101455.75;5076927;28;20020;-47
2022/06/04 07:39:22;;;;;;;7.70;2.85;;;;;;;14.51;61.29;101473.88;5076392;28;20423;-49
2022/06/04 07:41:52;;;;;;;5.18;2.35;;;;;;;14.58;61.21;101483.94;5058372;28;20149;-47
2022/06/04 07:44:19;;;;;;;9.55;2.88;;;;;;;14.21;61.50;101467.78;5076271;28;20044;-47
2022/06/04 07:46:46;;;;;;;7.93;3.22;;;;;;;14.44;61.07;101486.50;5076305;28;20028;-47
2022/06/04 07:49:13;;;;;;;10.32;3.10;;;;;;;14.45;61.07;101471.97;5076922;28;20415;-47
2022/06/04 07:51:41;;;;;;;12.38;2.80;;;;;;;14.33;60.97;101484.31;5059093;28;20024;-48
2022/06/04 07:54:08;;;;;;;6.18;2.63;;;;;;;14.07;61.50;101477.63;5077145;28;20037;-48
2022/06/04 07:56:36;;;;;;;6.57;2.83;;;;;;;14.15;61.46;101479.34;5060544;28;20381;-48
2022/06/04 07:59:03;;;;;;;9.57;2.67;;;;;;;14.30;61.59;101460.38;5059650;28;20024;-49
2022/06/04 08:01:29;;;;;;;5.22;2.58;;;;;;;14.63;60.92;101474.22;5057856;28;20035;-47
2022/06/04 08:03:55;;;;;;;8.95;3.40;;;;;;;14.40;60.63;101473.59;5075833;28;20029;-49
2022/06/04 08:06:22;;;;;;;6.60;2.55;;;;;;;14.30;61.50;101472.03;5076330;28;20060;-46
2022/06/04 08:08:51;;;;;;;16.08;2.88;;;;;;;14.36;61.12;101470.44;5075070;28;20030;-47
2022/06/04 08:14:22;;;;;;;7.78;3.05;;;;;;;14.24;61.83;101488.19;5060473;28;20024;-47
2022/06/04 08:16:52;;;;;;;7.22;2.60;;;;;;;14.29;61.97;101493.84;5057426;28;20480;-47
2022/06/04 08:19:18;;;;;;;7.32;2.95;;;;;;;14.17;61.07;101498.06;5075673;28;20052;-49
2022/06/04 08:21:44;;;;;;;11.15;3.53;;;;;;;14.02;61.96;101485.47;5075711;28;20086;-46
2022/06/04 08:24:12;;;;;;;5.43;2.78;;;;;;;13.84;62.16;101467.00;5075083;28;20053;-46
2022/06/04 08:26:41;;;;;;;14.48;2.70;;;;;;;13.96;61.95;101483.53;5041535;28;20044;-49
2022/06/04 08:29:07;;;;;;;9.52;3.00;;;;;;;13.93;62.26;101487.44;5075170;28;20477;-47
2022/06/04 08:31:34;;;;;;;11.27;3.63;;;;;;;13.98;62.23;101478.75;5075064;28;20037;-48
2022/06/04 08:34:00;;;;;;;9.55;2.63;;;;;;;14.21;61.44;101480.44;5075066;28;20025;-47
2022/06/04 08:36:26;;;;;;;9.00;2.88;;;;;;;14.21;60.77;101477.75;5074794;28;20392;-47
2022/06/04 08:38:52;;;;;;;9.25;2.90;;;;;;;14.25;60.82;101460.97;5056934;28;20477;-49
2022/06/04 08:41:28;;;;;;;8.25;2.88;;;;;;;14.42;60.30;101472.34;5075016;28;20036;-48
2022/06/04 08:44:05;;;;;;;9.82;3.75;;;;;;;14.42;59.92;101475.03;5058363;28;20027;-49
2022/06/04 08:46:38;;;;;;;8.13;2.55;;;;;;;14.50;60.05;101466.81;5057022;28;20036;-47
2022/06/04 08:49:13;;;;;;;7.28;2.65;;;;;;;14.52;59.70;101477.41;5056740;28;20035;-47
2022/06/04 08:51:39;;;;;;;7.18;2.85;;;;;;;14.55;59.53;101481.63;5057276;28;20040;-48
2022/06/04 08:59:57;;;;;;;5.57;2.70;;;;;;;14.97;58.97;101482.56;5042615;28;20056;-47
2022/06/04 09:02:33;;;;;;;6.75;2.95;;;;;;;15.46;57.36;101492.44;5056578;28;20066;-47
2022/06/04 09:05:14;;;;;;;8.35;2.90;;;;;;;15.26;56.73;101485.03;5074388;28;20024;-47
2022/06/04 09:07:45;;;;;;;8.05;2.67;;;;;;;15.27;57.65;101485.91;5074482;28;20028;-50
2022/06/04 09:10:20;;;;;;;2.63;2.08;;;;;;;15.25;58.30;101477.97;5074252;28;20024;-49
2022/06/04 09:12:52;;;;;;;3.72;2.63;;;;;;;15.39;57.81;101497.81;5074082;28;20142;-47
2022/06/04 09:15:27;;;;;;;9.55;2.55;;;;;;;15.24;57.84;101489.81;5056754;28;20040;-48
2022/06/04 09:17:56;;;;;;;7.65;2.72;;;;;;;15.37;57.81;101496.34;5057537;28;20469;-47
2022/06/04 09:20:36;;;;;;;5.82;2.60;;;;;;;15.46;57.05;101484.31;5073638;28;20388;-48
2022/06/04 09:23:12;;;;;;;5.13;2.35;;;;;;;15.46;56.66;101465.38;5073926;28;20488;-47
2022/06/04 09:25:46;;;;;;;7.15;3.10;;;;;;;15.17;57.15;101466.47;5073913;28;20084;-58
2022/06/04 09:28:19;;;;;;;;;;;;;;;15.06;57.04;101460.59;5056985;28;20107;-48
2022/06/04 09:30:58;;;;;;;6.07;2.45;;;;;;;14.84;58.68;101472.50;5074115;28;19938;-49
2022/06/04 09:33:55;;;;;;;9.18;2.47;;;;;;;14.81;58.69;101462.91;5073994;28;20037;-49
2022/06/04 09:36:27;;;;;;;7.47;3.03;;;;;;;14.97;57.73;101461.78;5060928;28;20034;-52
2022/06/04 09:39:00;;;;;;;6.80;2.83;;;;;;;14.90;58.25;101453.63;5073671;28;20157;-48
2022/06/04 09:41:29;;;;;;;10.98;2.90;;;;;;;14.98;58.22;101457.22;5056167;28;20496;-47
2022/06/04 09:44:07;;;;;;;10.18;2.80;;;;;;;15.06;58.06;101457.03;5039997;28;20024;-48
2022/06/04 09:46:34;;;;;;;9.73;3.55;;;;;;;15.15;58.01;101455.84;5073949;28;20033;-48
2022/06/04 09:49:04;;;;;;;8.52;3.08;;;;;;;15.33;57.45;101457.19;5057888;28;20031;-49
2022/06/04 09:51:40;;;;;;;8.75;2.80;;;;;;;15.42;57.77;101469.53;5076541;28;20077;-50
2022/06/04 09:54:06;;;;;;;7.95;2.92;;;;;;;15.50;57.43;101447.69;5057610;28;20487;-48
2022/06/04 09:56:43;;;;;;;12.65;2.92;;;;;;;15.85;57.47;101463.88;5075167;28;20135;-48
2022/06/04 09:59:29;;;;;;;9.23;3.40;;;;;;;16.24;56.94;101468.53;5074183;28;20052;-51
2022/06/04 10:01:57;;;;;;;6.45;2.55;;;;;;;16.50;57.37;101464.19;5074315;28;20423;-50
2022/06/04 10:04:34;;;;;;;8.73;3.00;;;;;;;16.95;57.09;101471.69;5055935;28;20033;-48
2022/06/04 10:07:07;;;;;;;10.85;3.28;;;;;;;16.83;58.66;101477.78;5073622;28;20059;-47
2022/06/04 10:15:28;;;;;;;6.00;3.25;;;;;;;17.31;56.30;101465.78;5045996;28;20028;-49
2022/06/04 10:18:02;;;;;;;6.25;3.13;;;;;;;17.38;56.62;101468.47;5073281;28;20500;-48
2022/06/04 10:20:29;;;;;;;5.70;3.28;;;;;;;17.03;56.72;101453.31;5056513;28;20040;-48
2022/06/04 10:22:56;;;;;;;7.80;3.15;;;;;;;16.63;55.79;101466.06;5039463;28;20052;-48
2022/06/04 10:25:34;;;;;;;5.15;3.00;;;;;;;16.36;56.88;101457.09;5073282;28;20044;-47
2022/06/04 10:28:25;;;;;;;6.90;3.00;;;;;;;16.49;56.47;101458.97;5073423;28;20130;-48
2022/06/04 10:31:02;;;;;;;12.00;3.58;;;;;;;16.29;55.82;101476.06;5058412;28;20029;-49
2022/06/04 10:33:57;;;;;;;10.60;2.92;;;;;;;16.19;57.58;101481.06;5042585;28;20043;-49
2022/06/04 10:36:43;;;;;;;10.30;3.40;;;;;;;16.14;56.91;101484.38;5062521;28;20039;-47
2022/06/04 10:39:37;;;;;;;8.35;3.30;;;;;;;16.01;56.21;101482.47;5059621;28;20029;-48
2022/06/04 10:42:32;;;;;;;8.15;2.72;;;;;;;16.00;55.53;101491.63;5046718;28;20031;-48
2022/06/04 10:45:13;;;;;;;3.35;2.60;;;;;;;15.99;56.49;101491.84;5047329;28;20504;-48
2022/06/04 10:47:50;;;;;;;13.25;3.70;;;;;;;15.77;56.48;101496.59;5078119;28;20107;-46
2022/06/04 10:50:28;;;;;;;8.63;3.00;;;;;;;15.47;58.19;101489.53;5060306;28;20028;-48
2022/06/04 10:53:06;;;;;;;7.00;3.30;;;;;;;15.16;58.02;101490.00;5045166;28;20020;-47
2022/06/04 10:55:41;;;;;;;7.97;3.60;;;;;;;15.16;57.77;101484.59;5078605;28;20028;-50
2022/06/04 10:58:36;;;;;;;7.80;3.22;;;;;;;14.98;57.00;101489.66;5044130;28;20050;-49
2022/06/04 11:01:24;;;;;;;5.47;3.15;;;;;;;14.86;56.70;101482.09;5062685;28;20024;-50
2022/06/04 11:04:17;;;;;;;6.38;3.28;;;;;;;14.85;57.26;101496.63;5059305;28;20024;-52
2022/06/04 11:06:50;;;;;;;4.60;2.72;;;;;;;14.98;57.92;101492.38;5062445;28;20101;-49
2022/06/04 11:09:21;;;;;;;10.48;3.30;;;;;;;14.91;58.55;101486.91;5077113;28;20115;-48
2022/06/04 11:11:55;;;;;;;7.35;2.67;;;;;;;14.82;58.88;101463.75;5076534;28;20477;-47
2022/06/04 11:14:38;;;;;;;4.45;2.58;;;;;;;14.93;59.77;101489.41;5076963;28;20519;-47
2022/06/04 11:17:23;;;;;;;4.60;2.97;;;;;;;15.01;58.67;101498.22;5058543;28;20085;-48
2022/06/04 11:19:59;;;;;;;5.97;3.05;;;;;;;14.84;58.78;101491.41;5058833;28;20020;-49
2022/06/04 11:22:33;;;;;;;5.90;2.38;;;;;;;14.75;59.50;101492.63;5076448;28;20483;-47
2022/06/04 11:25:19;;;;;;;5.97;2.72;;;;;;;14.79;59.68;101497.44;5076215;28;20049;-49
2022/06/04 11:27:52;;;;;;;3.80;2.63;;;;;;;14.81;59.32;101471.03;5058466;28;20082;-48
2022/06/04 11:30:28;;;;;;;9.13;2.90;;;;;;;14.86;59.21;101490.22;5076271;28;20025;-49
2022/06/04 11:33:07;;;;;;;6.60;2.85;;;;;;;14.73;59.77;101482.00;5058250;28;20032;-49
2022/06/04 11:35:46;;;;;;;5.35;2.90;;;;;;;14.63;59.36;101479.63;5059762;28;20380;-49
2022/06/04 11:38:31;;;;;;;4.68;2.58;;;;;;;14.90;59.38;101491.47;5059012;28;20487;-48
2022/06/04 11:41:12;;;;;;;;;;;;;;;15.00;58.67;101484.88;5076763;28;20436;-51
2022/06/04 11:44:18;;;;;;;6.50;3.08;;;;;;;14.98;59.85;101484.25;5057550;28;19915;-47
2022/06/04 11:47:00;;;;;;;;;;;;;;;14.99;59.02;101491.31;5044661;28;20483;-49
2022/06/04 11:49:45;;;;;;;5.68;2.70;;;;;;;15.09;58.94;101487.22;5076265;28;19954;-48
2022/06/04 11:52:33;;;;;;;4.95;2.40;;;;;;;15.40;58.25;101482.44;5075690;28;20472;-47
2022/06/04 11:55:30;;;;;;;5.93;2.70;;;;;;;15.25;57.16;101477.97;5058077;28;20106;-47
2022/06/04 11:58:24;;;;;;;4.75;2.53;;;;;;;15.52;56.85;101469.16;5060883;28;20477;-49
2022/06/04 12:00:51;;;;;;;12.70;2.90;;;;;;;15.94;55.87;101461.84;5062448;28;20115;-49
2022/06/04 12:03:50;;;;;;;4.63;2.67;;;;;;;16.23;55.20;101460.63;5057581;28;20074;-47
2022/06/04 12:06:22;;;;;;;8.18;2.70;;;;;;;16.24;54.53;101446.88;5060607;28;20046;-49